Estación Meteorológica Peña el Pijo (Robertgarden) [ 12/17/17 01:30:20 CET ]

Fecha Hora Presion(HPa) Temp (°C) Humedad % Rocio (°C) Viento ( m/s) Direccion Lluvia 1Hora(mm) Lluvia 24H(mm) LLuvia Total(mm)
2017-Oct-31 01:01:47 1010.100 7.2 82 4.3         1466.45
2017-Oct-31 02:01:38 1010.000 5.9 83 3.2         1466.45
2017-Oct-31 03:01:41 1009.900 5.9 84 3.4         1466.45
2017-Oct-31 04:03:11 1009.800 5.1 85 2.8         1466.45
2017-Oct-31 05:01:50 1010.000 4.4 85 2.1         1466.45
2017-Oct-31 06:01:40 1010.000 4.1 86 1.9         1466.45
2017-Oct-31 07:01:38 1010.400 3.1 87 1.1         1466.45
2017-Oct-31 08:01:49 1011.100 2.8 87 0.8         1466.45
2017-Oct-31 09:01:46 1011.900 5.6 88 3.8         1466.45
2017-Oct-31 10:01:54 1012.200 10.3 89 8.5         1466.45
2017-Oct-31 11:02:03 1012.100 17.6 74 12.9         1466.45
2017-Oct-31 12:01:46 1011.700 19.8 47 8.1         1466.45
2017-Oct-31 13:01:31 1011.200 19.6 46 7.6         1466.45
2017-Oct-31 14:01:39 1010.800 20.9 43 7.8         1466.45
2017-Oct-31 15:01:43 1010.600 21.8 41 7.9         1466.45
2017-Oct-31 16:02:00 1010.500 20.4 43 7.3         1466.45
2017-Oct-31 17:01:55 1010.500 17.6 49 6.7         1466.45
2017-Oct-31 18:01:56 1011.100 15.6 55 6.6         1466.45
2017-Oct-31 19:01:42 1011.700 12.6 65 6.2         1466.45
2017-Oct-31 20:01:58 1012.200 12.1 69 6.6         1466.45
2017-Oct-31 21:01:42 1012.900 9.4 72 4.6         1466.45
2017-Oct-31 22:02:04 1013.200 7.4 77 3.6         1466.45
2017-Oct-31 23:01:37 1013.300 6.3 80 3.1         1466.45

Temperatura Máxima:21°    Temperatura Mínima:
Presión Máxima:1013.300 Hpa    Presión Mínima:1009.800 Hpa


Volver